Aviation Digital Data Service (ADDS)

Output produced by TAFs form (1540 UTC 24 May 2016)
found at http://www.aviationweather.gov/adds/tafs/
 
KRIC 241120Z 2412/2512 27004KT P6SM SCT100 SCT250 
     FM241400 30008KT P6SM SCT060 SCT250 
     FM242100 26007KT P6SM SCT050 SCT250 
     FM250000 23003KT P6SM SKC